sensor_id;sensor_type;location;lat;lon;timestamp;temperature;humidity
32753;DHT22;19121;52.428;10.816;2022-12-13T00:02:16;17.20;33.60
32753;DHT22;19121;52.428;10.816;2022-12-13T00:04:41;17.20;33.70
32753;DHT22;19121;52.428;10.816;2022-12-13T00:07:06;17.20;33.70
32753;DHT22;19121;52.428;10.816;2022-12-13T00:09:32;17.20;33.70
32753;DHT22;19121;52.428;10.816;2022-12-13T00:11:57;17.20;33.70
32753;DHT22;19121;52.428;10.816;2022-12-13T00:14:23;17.20;33.70
32753;DHT22;19121;52.428;10.816;2022-12-13T00:16:48;17.20;33.70
32753;DHT22;19121;52.428;10.816;2022-12-13T00:19:14;17.20;33.70
32753;DHT22;19121;52.428;10.816;2022-12-13T00:21:39;17.20;33.70
32753;DHT22;19121;52.428;10.816;2022-12-13T00:24:05;17.20;33.70
32753;DHT22;19121;52.428;10.816;2022-12-13T00:26:31;17.20;33.70
32753;DHT22;19121;52.428;10.816;2022-12-13T00:28:58;17.10;33.70
32753;DHT22;19121;52.428;10.816;2022-12-13T00:31:24;17.10;33.70
32753;DHT22;19121;52.428;10.816;2022-12-13T00:33:50;17.10;33.70
32753;DHT22;19121;52.428;10.816;2022-12-13T00:36:16;17.10;33.70
32753;DHT22;19121;52.428;10.816;2022-12-13T00:38:41;17.10;33.70
32753;DHT22;19121;52.428;10.816;2022-12-13T00:41:10;17.10;33.70
32753;DHT22;19121;52.428;10.816;2022-12-13T00:43:36;17.10;33.70
32753;DHT22;19121;52.428;10.816;2022-12-13T00:46:01;17.10;33.70
32753;DHT22;19121;52.428;10.816;2022-12-13T00:48:27;17.10;33.70
32753;DHT22;19121;52.428;10.816;2022-12-13T00:50:52;17.10;33.70
32753;DHT22;19121;52.428;10.816;2022-12-13T00:53:18;17.10;33.70
32753;DHT22;19121;52.428;10.816;2022-12-13T00:55:43;17.10;33.70
32753;DHT22;19121;52.428;10.816;2022-12-13T00:58:08;17.10;33.70
32753;DHT22;19121;52.428;10.816;2022-12-13T01:00:34;17.10;33.70
32753;DHT22;19121;52.428;10.816;2022-12-13T01:03:00;17.10;33.70
32753;DHT22;19121;52.428;10.816;2022-12-13T01:05:45;17.10;33.70
32753;DHT22;19121;52.428;10.816;2022-12-13T01:08:10;17.10;33.70
32753;DHT22;19121;52.428;10.816;2022-12-13T01:10:36;17.10;33.70
32753;DHT22;19121;52.428;10.816;2022-12-13T01:13:01;17.10;33.70
32753;DHT22;19121;52.428;10.816;2022-12-13T01:15:26;17.10;33.70
32753;DHT22;19121;52.428;10.816;2022-12-13T01:17:52;17.10;33.70
32753;DHT22;19121;52.428;10.816;2022-12-13T01:20:17;17.10;33.70
32753;DHT22;19121;52.428;10.816;2022-12-13T01:22:42;17.10;33.70
32753;DHT22;19121;52.428;10.816;2022-12-13T01:25:08;17.10;33.70
32753;DHT22;19121;52.428;10.816;2022-12-13T01:27:33;17.10;33.70
32753;DHT22;19121;52.428;10.816;2022-12-13T01:29:59;17.10;33.70
32753;DHT22;19121;52.428;10.816;2022-12-13T01:32:24;17.10;33.70
32753;DHT22;19121;52.428;10.816;2022-12-13T01:34:49;17.10;33.70
32753;DHT22;19121;52.428;10.816;2022-12-13T01:37:15;17.10;33.70
32753;DHT22;19121;52.428;10.816;2022-12-13T01:39:41;17.10;33.70
32753;DHT22;19121;52.428;10.816;2022-12-13T01:42:09;17.10;33.70
32753;DHT22;19121;52.428;10.816;2022-12-13T01:44:55;17.10;33.70
32753;DHT22;19121;52.428;10.816;2022-12-13T01:47:26;17.10;33.70
32753;DHT22;19121;52.428;10.816;2022-12-13T01:49:53;17.00;33.60
32753;DHT22;19121;52.428;10.816;2022-12-13T01:52:20;17.00;33.70
32753;DHT22;19121;52.428;10.816;2022-12-13T01:54:47;17.10;33.70
32753;DHT22;19121;52.428;10.816;2022-12-13T01:57:14;17.00;33.60
32753;DHT22;19121;52.428;10.816;2022-12-13T01:59:41;17.10;33.70
32753;DHT22;19121;52.428;10.816;2022-12-13T02:02:07;17.10;33.70
32753;DHT22;19121;52.428;10.816;2022-12-13T02:04:51;17.10;33.70
32753;DHT22;19121;52.428;10.816;2022-12-13T02:07:19;17.00;33.60
32753;DHT22;19121;52.428;10.816;2022-12-13T02:09:45;17.10;33.70
32753;DHT22;19121;52.428;10.816;2022-12-13T02:12:11;17.00;33.60
32753;DHT22;19121;52.428;10.816;2022-12-13T02:14:38;17.10;33.70
32753;DHT22;19121;52.428;10.816;2022-12-13T02:17:07;17.00;34.30
32753;DHT22;19121;52.428;10.816;2022-12-13T02:22:28;17.00;33.70
32753;DHT22;19121;52.428;10.816;2022-12-13T02:25:07;17.00;33.60
32753;DHT22;19121;52.428;10.816;2022-12-13T02:27:49;17.00;33.60
32753;DHT22;19121;52.428;10.816;2022-12-13T02:30:19;17.00;33.70
32753;DHT22;19121;52.428;10.816;2022-12-13T02:35:22;17.00;33.70
32753;DHT22;19121;52.428;10.816;2022-12-13T02:40:37;17.00;33.60
32753;DHT22;19121;52.428;10.816;2022-12-13T02:43:06;17.00;33.60
32753;DHT22;19121;52.428;10.816;2022-12-13T02:45:33;17.00;33.60
32753;DHT22;19121;52.428;10.816;2022-12-13T02:48:01;17.00;33.60
32753;DHT22;19121;52.428;10.816;2022-12-13T02:50:28;17.00;33.70
32753;DHT22;19121;52.428;10.816;2022-12-13T02:52:54;17.00;33.70
32753;DHT22;19121;52.428;10.816;2022-12-13T02:55:20;17.00;33.60
32753;DHT22;19121;52.428;10.816;2022-12-13T02:57:45;17.00;33.70
32753;DHT22;19121;52.428;10.816;2022-12-13T03:00:13;17.00;34.20
32753;DHT22;19121;52.428;10.816;2022-12-13T03:02:41;17.00;33.70
32753;DHT22;19121;52.428;10.816;2022-12-13T03:08:05;17.00;33.60
32753;DHT22;19121;52.428;10.816;2022-12-13T03:10:39;17.00;33.70
32753;DHT22;19121;52.428;10.816;2022-12-13T03:13:07;17.00;33.60
32753;DHT22;19121;52.428;10.816;2022-12-13T03:15:55;17.00;33.60
32753;DHT22;19121;52.428;10.816;2022-12-13T03:18:22;17.00;33.60
32753;DHT22;19121;52.428;10.816;2022-12-13T03:20:49;17.00;33.70
32753;DHT22;19121;52.428;10.816;2022-12-13T03:23:16;17.00;33.70
32753;DHT22;19121;52.428;10.816;2022-12-13T03:25:42;17.00;33.60
32753;DHT22;19121;52.428;10.816;2022-12-13T03:28:08;17.00;33.60
32753;DHT22;19121;52.428;10.816;2022-12-13T03:30:33;17.00;33.60
32753;DHT22;19121;52.428;10.816;2022-12-13T03:32:59;17.00;33.60
32753;DHT22;19121;52.428;10.816;2022-12-13T03:35:25;17.00;33.60
32753;DHT22;19121;52.428;10.816;2022-12-13T03:37:50;17.00;33.60
32753;DHT22;19121;52.428;10.816;2022-12-13T03:40:16;17.00;33.60
32753;DHT22;19121;52.428;10.816;2022-12-13T03:42:42;17.00;33.60
32753;DHT22;19121;52.428;10.816;2022-12-13T03:45:08;17.00;33.60
32753;DHT22;19121;52.428;10.816;2022-12-13T03:47:33;17.00;33.60
32753;DHT22;19121;52.428;10.816;2022-12-13T03:49:59;17.00;33.50
32753;DHT22;19121;52.428;10.816;2022-12-13T03:52:24;17.00;33.50
32753;DHT22;19121;52.428;10.816;2022-12-13T03:54:49;17.00;33.50
32753;DHT22;19121;52.428;10.816;2022-12-13T03:57:15;17.00;34.20
32753;DHT22;19121;52.428;10.816;2022-12-13T03:59:40;17.00;33.60
32753;DHT22;19121;52.428;10.816;2022-12-13T04:02:05;17.00;33.50
32753;DHT22;19121;52.428;10.816;2022-12-13T04:04:31;17.00;33.60
32753;DHT22;19121;52.428;10.816;2022-12-13T04:06:56;17.00;33.60
32753;DHT22;19121;52.428;10.816;2022-12-13T04:09:22;17.00;33.60
32753;DHT22;19121;52.428;10.816;2022-12-13T04:11:47;17.00;33.60
32753;DHT22;19121;52.428;10.816;2022-12-13T04:14:50;17.00;33.60
32753;DHT22;19121;52.428;10.816;2022-12-13T04:17:16;17.00;33.50
32753;DHT22;19121;52.428;10.816;2022-12-13T04:19:41;17.00;33.50
32753;DHT22;19121;52.428;10.816;2022-12-13T04:22:07;17.00;33.50
32753;DHT22;19121;52.428;10.816;2022-12-13T04:24:32;17.00;33.50
32753;DHT22;19121;52.428;10.816;2022-12-13T04:26:58;17.00;33.50
32753;DHT22;19121;52.428;10.816;2022-12-13T04:29:24;17.00;33.50
32753;DHT22;19121;52.428;10.816;2022-12-13T04:31:49;17.00;33.50
32753;DHT22;19121;52.428;10.816;2022-12-13T04:34:14;17.00;33.50
32753;DHT22;19121;52.428;10.816;2022-12-13T04:36:40;17.00;33.50
32753;DHT22;19121;52.428;10.816;2022-12-13T04:39:06;17.00;33.50
32753;DHT22;19121;52.428;10.816;2022-12-13T04:41:35;17.00;33.50
32753;DHT22;19121;52.428;10.816;2022-12-13T04:44:02;17.00;33.50
32753;DHT22;19121;52.428;10.816;2022-12-13T04:46:28;17.00;33.50
32753;DHT22;19121;52.428;10.816;2022-12-13T04:48:53;17.00;33.50
32753;DHT22;19121;52.428;10.816;2022-12-13T04:51:19;17.00;33.50
32753;DHT22;19121;52.428;10.816;2022-12-13T04:53:44;17.00;33.40
32753;DHT22;19121;52.428;10.816;2022-12-13T04:56:09;17.00;33.40
32753;DHT22;19121;52.428;10.816;2022-12-13T04:58:35;17.00;33.40
32753;DHT22;19121;52.428;10.816;2022-12-13T05:01:00;17.00;33.50
32753;DHT22;19121;52.428;10.816;2022-12-13T05:03:26;17.00;33.40
32753;DHT22;19121;52.428;10.816;2022-12-13T05:05:52;17.00;33.40
32753;DHT22;19121;52.428;10.816;2022-12-13T05:08:17;17.00;33.40
32753;DHT22;19121;52.428;10.816;2022-12-13T05:10:42;17.00;33.40
32753;DHT22;19121;52.428;10.816;2022-12-13T05:13:08;17.00;33.40
32753;DHT22;19121;52.428;10.816;2022-12-13T05:15:33;17.00;33.40
32753;DHT22;19121;52.428;10.816;2022-12-13T05:18:03;17.00;33.30
32753;DHT22;19121;52.428;10.816;2022-12-13T05:20:29;17.00;33.40
32753;DHT22;19121;52.428;10.816;2022-12-13T05:22:57;17.00;33.40
32753;DHT22;19121;52.428;10.816;2022-12-13T05:25:23;16.90;33.30
32753;DHT22;19121;52.428;10.816;2022-12-13T05:27:49;17.00;33.40
32753;DHT22;19121;52.428;10.816;2022-12-13T05:30:14;17.00;33.40
32753;DHT22;19121;52.428;10.816;2022-12-13T05:32:43;17.00;33.40
32753;DHT22;19121;52.428;10.816;2022-12-13T05:35:08;16.90;33.30
32753;DHT22;19121;52.428;10.816;2022-12-13T05:37:34;17.00;33.40
32753;DHT22;19121;52.428;10.816;2022-12-13T05:39:59;17.00;33.40
32753;DHT22;19121;52.428;10.816;2022-12-13T05:42:24;16.90;33.30
32753;DHT22;19121;52.428;10.816;2022-12-13T05:44:50;16.90;33.30
32753;DHT22;19121;52.428;10.816;2022-12-13T05:47:16;16.90;33.30
32753;DHT22;19121;52.428;10.816;2022-12-13T05:49:41;16.90;33.20
32753;DHT22;19121;52.428;10.816;2022-12-13T05:52:14;16.90;33.20
32753;DHT22;19121;52.428;10.816;2022-12-13T05:54:39;16.90;33.20
32753;DHT22;19121;52.428;10.816;2022-12-13T05:57:05;16.90;33.20
32753;DHT22;19121;52.428;10.816;2022-12-13T05:59:31;16.90;33.20
32753;DHT22;19121;52.428;10.816;2022-12-13T06:01:57;16.90;33.20
32753;DHT22;19121;52.428;10.816;2022-12-13T06:04:22;16.90;33.20
32753;DHT22;19121;52.428;10.816;2022-12-13T06:06:48;16.90;33.20
32753;DHT22;19121;52.428;10.816;2022-12-13T06:09:13;16.90;33.30
32753;DHT22;19121;52.428;10.816;2022-12-13T06:11:38;16.90;33.20
32753;DHT22;19121;52.428;10.816;2022-12-13T06:14:04;16.90;33.20
32753;DHT22;19121;52.428;10.816;2022-12-13T06:16:29;16.90;33.20
32753;DHT22;19121;52.428;10.816;2022-12-13T06:18:56;16.90;33.20
32753;DHT22;19121;52.428;10.816;2022-12-13T06:21:21;16.90;33.20
32753;DHT22;19121;52.428;10.816;2022-12-13T06:23:46;16.90;33.20
32753;DHT22;19121;52.428;10.816;2022-12-13T06:26:12;16.90;33.20
32753;DHT22;19121;52.428;10.816;2022-12-13T06:28:37;16.90;33.20
32753;DHT22;19121;52.428;10.816;2022-12-13T06:31:03;16.90;33.20
32753;DHT22;19121;52.428;10.816;2022-12-13T06:33:29;16.90;33.20
32753;DHT22;19121;52.428;10.816;2022-12-13T06:35:55;16.90;33.20
32753;DHT22;19121;52.428;10.816;2022-12-13T06:38:20;16.90;33.20
32753;DHT22;19121;52.428;10.816;2022-12-13T06:40:46;16.90;33.20
32753;DHT22;19121;52.428;10.816;2022-12-13T06:43:11;16.90;33.20
32753;DHT22;19121;52.428;10.816;2022-12-13T06:45:37;16.90;33.20
32753;DHT22;19121;52.428;10.816;2022-12-13T06:48:03;16.90;33.80
32753;DHT22;19121;52.428;10.816;2022-12-13T06:50:28;16.90;33.20
32753;DHT22;19121;52.428;10.816;2022-12-13T06:52:54;16.90;33.30
32753;DHT22;19121;52.428;10.816;2022-12-13T06:55:19;16.90;33.60
32753;DHT22;19121;52.428;10.816;2022-12-13T06:57:44;16.90;33.60
32753;DHT22;19121;52.428;10.816;2022-12-13T07:00:10;16.90;34.00
32753;DHT22;19121;52.428;10.816;2022-12-13T07:02:36;16.90;33.70
32753;DHT22;19121;52.428;10.816;2022-12-13T07:05:02;16.90;34.90
32753;DHT22;19121;52.428;10.816;2022-12-13T07:07:27;17.00;35.20
32753;DHT22;19121;52.428;10.816;2022-12-13T07:09:53;16.90;35.00
32753;DHT22;19121;52.428;10.816;2022-12-13T07:12:19;17.00;35.10
32753;DHT22;19121;52.428;10.816;2022-12-13T07:14:45;17.00;35.00
32753;DHT22;19121;52.428;10.816;2022-12-13T07:17:10;17.00;34.80
32753;DHT22;19121;52.428;10.816;2022-12-13T07:19:36;17.00;35.50
32753;DHT22;19121;52.428;10.816;2022-12-13T07:22:02;17.00;34.80
32753;DHT22;19121;52.428;10.816;2022-12-13T07:24:29;17.10;34.70
32753;DHT22;19121;52.428;10.816;2022-12-13T07:26:55;17.10;34.50
32753;DHT22;19121;52.428;10.816;2022-12-13T07:29:20;17.10;34.50
32753;DHT22;19121;52.428;10.816;2022-12-13T07:31:45;17.10;34.50
32753;DHT22;19121;52.428;10.816;2022-12-13T07:34:11;17.10;34.40
32753;DHT22;19121;52.428;10.816;2022-12-13T07:36:36;17.10;34.70
32753;DHT22;19121;52.428;10.816;2022-12-13T07:39:02;17.10;34.40
32753;DHT22;19121;52.428;10.816;2022-12-13T07:41:27;17.10;34.40
32753;DHT22;19121;52.428;10.816;2022-12-13T07:43:53;17.10;34.40
32753;DHT22;19121;52.428;10.816;2022-12-13T07:46:19;17.10;34.40
32753;DHT22;19121;52.428;10.816;2022-12-13T07:48:44;17.10;34.30
32753;DHT22;19121;52.428;10.816;2022-12-13T07:51:10;17.20;34.20
32753;DHT22;19121;52.428;10.816;2022-12-13T07:53:38;17.20;34.20
32753;DHT22;19121;52.428;10.816;2022-12-13T07:56:05;17.20;34.20
32753;DHT22;19121;52.428;10.816;2022-12-13T07:58:31;17.20;34.20
32753;DHT22;19121;52.428;10.816;2022-12-13T08:01:01;17.30;34.20
32753;DHT22;19121;52.428;10.816;2022-12-13T08:03:28;17.30;34.20
32753;DHT22;19121;52.428;10.816;2022-12-13T08:06:04;17.30;34.20
32753;DHT22;19121;52.428;10.816;2022-12-13T08:08:29;17.30;34.20
32753;DHT22;19121;52.428;10.816;2022-12-13T08:10:59;17.30;34.20
32753;DHT22;19121;52.428;10.816;2022-12-13T08:13:24;17.30;34.40
32753;DHT22;19121;52.428;10.816;2022-12-13T08:15:50;17.30;34.10
32753;DHT22;19121;52.428;10.816;2022-12-13T08:18:15;17.30;33.80
32753;DHT22;19121;52.428;10.816;2022-12-13T08:20:41;17.30;33.80
32753;DHT22;19121;52.428;10.816;2022-12-13T08:23:06;17.30;33.80
32753;DHT22;19121;52.428;10.816;2022-12-13T08:25:31;17.30;33.90
32753;DHT22;19121;52.428;10.816;2022-12-13T08:27:57;17.30;33.80
32753;DHT22;19121;52.428;10.816;2022-12-13T08:30:22;17.30;33.80
32753;DHT22;19121;52.428;10.816;2022-12-13T08:32:48;17.30;34.30
32753;DHT22;19121;52.428;10.816;2022-12-13T08:35:14;17.30;33.80
32753;DHT22;19121;52.428;10.816;2022-12-13T08:37:39;17.30;33.80
32753;DHT22;19121;52.428;10.816;2022-12-13T08:40:05;17.30;33.80
32753;DHT22;19121;52.428;10.816;2022-12-13T08:42:30;17.30;33.90
32753;DHT22;19121;52.428;10.816;2022-12-13T08:44:56;17.30;33.80
32753;DHT22;19121;52.428;10.816;2022-12-13T08:47:23;17.20;33.80
32753;DHT22;19121;52.428;10.816;2022-12-13T08:49:49;17.30;34.10
32753;DHT22;19121;52.428;10.816;2022-12-13T08:52:14;17.30;34.00
32753;DHT22;19121;52.428;10.816;2022-12-13T08:54:40;17.30;34.00
32753;DHT22;19121;52.428;10.816;2022-12-13T08:57:05;17.30;34.00
32753;DHT22;19121;52.428;10.816;2022-12-13T08:59:31;17.30;34.00
32753;DHT22;19121;52.428;10.816;2022-12-13T09:01:56;17.30;34.00
32753;DHT22;19121;52.428;10.816;2022-12-13T09:04:21;17.30;34.00
32753;DHT22;19121;52.428;10.816;2022-12-13T09:06:47;17.30;34.00
32753;DHT22;19121;52.428;10.816;2022-12-13T09:09:12;17.30;34.00
32753;DHT22;19121;52.428;10.816;2022-12-13T09:11:38;17.30;34.10
32753;DHT22;19121;52.428;10.816;2022-12-13T09:14:05;17.30;34.10
32753;DHT22;19121;52.428;10.816;2022-12-13T09:16:31;17.30;34.10
32753;DHT22;19121;52.428;10.816;2022-12-13T09:18:56;17.30;34.00
32753;DHT22;19121;52.428;10.816;2022-12-13T09:21:21;17.30;34.10
32753;DHT22;19121;52.428;10.816;2022-12-13T09:23:47;17.30;34.10
32753;DHT22;19121;52.428;10.816;2022-12-13T09:26:14;17.30;34.20
32753;DHT22;19121;52.428;10.816;2022-12-13T09:28:40;17.30;34.10
32753;DHT22;19121;52.428;10.816;2022-12-13T09:31:15;17.40;34.10
32753;DHT22;19121;52.428;10.816;2022-12-13T09:33:41;17.40;34.10
32753;DHT22;19121;52.428;10.816;2022-12-13T09:36:07;17.40;34.30
32753;DHT22;19121;52.428;10.816;2022-12-13T09:38:36;17.40;34.20
32753;DHT22;19121;52.428;10.816;2022-12-13T09:41:03;17.40;34.10
32753;DHT22;19121;52.428;10.816;2022-12-13T09:43:33;17.40;34.10
32753;DHT22;19121;52.428;10.816;2022-12-13T09:46:03;17.40;34.20
32753;DHT22;19121;52.428;10.816;2022-12-13T09:48:29;17.40;33.90
32753;DHT22;19121;52.428;10.816;2022-12-13T09:50:55;17.40;33.80
32753;DHT22;19121;52.428;10.816;2022-12-13T09:53:20;17.40;33.60
32753;DHT22;19121;52.428;10.816;2022-12-13T09:55:46;17.40;33.50
32753;DHT22;19121;52.428;10.816;2022-12-13T09:58:17;17.40;33.50
32753;DHT22;19121;52.428;10.816;2022-12-13T10:00:45;17.40;33.80
32753;DHT22;19121;52.428;10.816;2022-12-13T10:03:12;17.50;33.80
32753;DHT22;19121;52.428;10.816;2022-12-13T10:05:38;17.40;33.80
32753;DHT22;19121;52.428;10.816;2022-12-13T10:08:04;17.50;33.90
32753;DHT22;19121;52.428;10.816;2022-12-13T10:10:31;17.50;33.90
32753;DHT22;19121;52.428;10.816;2022-12-13T10:12:58;17.50;33.90
32753;DHT22;19121;52.428;10.816;2022-12-13T10:15:27;17.50;33.90
32753;DHT22;19121;52.428;10.816;2022-12-13T10:17:53;17.60;34.00
32753;DHT22;19121;52.428;10.816;2022-12-13T10:20:20;17.60;34.00
32753;DHT22;19121;52.428;10.816;2022-12-13T10:22:46;17.60;34.00
32753;DHT22;19121;52.428;10.816;2022-12-13T10:25:11;17.60;34.00
32753;DHT22;19121;52.428;10.816;2022-12-13T10:27:38;17.60;34.00
32753;DHT22;19121;52.428;10.816;2022-12-13T10:35:11;17.60;34.10
32753;DHT22;19121;52.428;10.816;2022-12-13T10:37:36;17.70;34.20
32753;DHT22;19121;52.428;10.816;2022-12-13T10:40:02;17.70;34.20
32753;DHT22;19121;52.428;10.816;2022-12-13T10:42:28;17.70;34.20
32753;DHT22;19121;52.428;10.816;2022-12-13T10:47:54;17.70;34.30
32753;DHT22;19121;52.428;10.816;2022-12-13T10:50:23;17.70;34.40
32753;DHT22;19121;52.428;10.816;2022-12-13T10:52:49;17.70;34.40
32753;DHT22;19121;52.428;10.816;2022-12-13T10:55:24;17.70;34.50
32753;DHT22;19121;52.428;10.816;2022-12-13T10:57:51;17.70;34.60
32753;DHT22;19121;52.428;10.816;2022-12-13T11:00:29;17.80;34.70
32753;DHT22;19121;52.428;10.816;2022-12-13T11:02:55;17.80;34.80
32753;DHT22;19121;52.428;10.816;2022-12-13T11:07:48;17.80;34.90
32753;DHT22;19121;52.428;10.816;2022-12-13T11:10:22;17.80;34.90
32753;DHT22;19121;52.428;10.816;2022-12-13T11:12:48;17.80;34.90
32753;DHT22;19121;52.428;10.816;2022-12-13T11:15:15;17.80;34.90
32753;DHT22;19121;52.428;10.816;2022-12-13T11:17:57;17.80;34.90
32753;DHT22;19121;52.428;10.816;2022-12-13T11:20:28;17.80;34.90
32753;DHT22;19121;52.428;10.816;2022-12-13T11:22:59;17.80;35.00
32753;DHT22;19121;52.428;10.816;2022-12-13T11:25:35;17.80;35.00
32753;DHT22;19121;52.428;10.816;2022-12-13T11:33:18;17.90;35.10
32753;DHT22;19121;52.428;10.816;2022-12-13T11:38:37;17.90;35.20
32753;DHT22;19121;52.428;10.816;2022-12-13T11:41:15;17.90;35.20
32753;DHT22;19121;52.428;10.816;2022-12-13T11:43:45;17.90;35.30
32753;DHT22;19121;52.428;10.816;2022-12-13T11:46:13;17.90;35.30
32753;DHT22;19121;52.428;10.816;2022-12-13T11:48:50;17.90;35.40
32753;DHT22;19121;52.428;10.816;2022-12-13T11:51:21;17.90;35.40
32753;DHT22;19121;52.428;10.816;2022-12-13T11:53:54;17.90;35.40
32753;DHT22;19121;52.428;10.816;2022-12-13T11:56:24;17.90;35.40
32753;DHT22;19121;52.428;10.816;2022-12-13T12:01:21;17.90;35.60
32753;DHT22;19121;52.428;10.816;2022-12-13T12:03:50;17.90;35.50
32753;DHT22;19121;52.428;10.816;2022-12-13T12:06:21;17.90;35.50
32753;DHT22;19121;52.428;10.816;2022-12-13T12:08:58;18.00;35.60
32753;DHT22;19121;52.428;10.816;2022-12-13T12:11:31;18.00;35.70
32753;DHT22;19121;52.428;10.816;2022-12-13T12:14:41;18.00;35.70
32753;DHT22;19121;52.428;10.816;2022-12-13T12:16:49;18.00;35.70
32753;DHT22;19121;52.428;10.816;2022-12-13T12:19:16;17.90;35.70
32753;DHT22;19121;52.428;10.816;2022-12-13T12:24:17;18.00;36.50
32753;DHT22;19121;52.428;10.816;2022-12-13T12:27:04;18.00;35.90
32753;DHT22;19121;52.428;10.816;2022-12-13T12:29:45;18.00;35.80
32753;DHT22;19121;52.428;10.816;2022-12-13T12:32:17;18.00;35.90
32753;DHT22;19121;52.428;10.816;2022-12-13T12:35:03;18.00;35.90
32753;DHT22;19121;52.428;10.816;2022-12-13T12:37:39;18.00;37.10
32753;DHT22;19121;52.428;10.816;2022-12-13T12:43:07;18.10;36.20
32753;DHT22;19121;52.428;10.816;2022-12-13T12:51:09;18.10;35.90
32753;DHT22;19121;52.428;10.816;2022-12-13T12:53:40;18.00;35.90
32753;DHT22;19121;52.428;10.816;2022-12-13T12:56:25;18.10;36.00
32753;DHT22;19121;52.428;10.816;2022-12-13T12:58:56;18.10;36.00
32753;DHT22;19121;52.428;10.816;2022-12-13T13:01:30;18.10;36.00
32753;DHT22;19121;52.428;10.816;2022-12-13T13:04:00;18.00;36.00
32753;DHT22;19121;52.428;10.816;2022-12-13T13:06:33;18.10;36.00
32753;DHT22;19121;52.428;10.816;2022-12-13T13:09:08;18.00;35.90
32753;DHT22;19121;52.428;10.816;2022-12-13T13:11:36;18.00;35.80
32753;DHT22;19121;52.428;10.816;2022-12-13T13:14:04;18.00;35.90
32753;DHT22;19121;52.428;10.816;2022-12-13T13:16:34;18.00;35.80
32753;DHT22;19121;52.428;10.816;2022-12-13T13:19:01;18.00;35.80
32753;DHT22;19121;52.428;10.816;2022-12-13T13:21:31;18.00;35.90
32753;DHT22;19121;52.428;10.816;2022-12-13T13:26:29;18.00;36.00
32753;DHT22;19121;52.428;10.816;2022-12-13T13:29:15;18.00;35.90
32753;DHT22;19121;52.428;10.816;2022-12-13T13:31:52;18.00;36.00
32753;DHT22;19121;52.428;10.816;2022-12-13T13:34:22;18.00;35.90
32753;DHT22;19121;52.428;10.816;2022-12-13T13:36:48;18.10;36.10
32753;DHT22;19121;52.428;10.816;2022-12-13T13:42:08;18.20;37.10
32753;DHT22;19121;52.428;10.816;2022-12-13T13:49:56;18.30;36.70
32753;DHT22;19121;52.428;10.816;2022-12-13T13:52:24;18.30;36.50
32753;DHT22;19121;52.428;10.816;2022-12-13T13:55:08;18.40;36.40
32753;DHT22;19121;52.428;10.816;2022-12-13T14:11:32;18.50;36.80
32753;DHT22;19121;52.428;10.816;2022-12-13T14:17:07;18.50;36.10
32753;DHT22;19121;52.428;10.816;2022-12-13T14:20:02;18.50;36.10
32753;DHT22;19121;52.428;10.816;2022-12-13T14:22:52;18.50;36.00
32753;DHT22;19121;52.428;10.816;2022-12-13T14:25:26;18.50;36.00
32753;DHT22;19121;52.428;10.816;2022-12-13T14:28:02;18.50;36.00
32753;DHT22;19121;52.428;10.816;2022-12-13T14:30:28;18.50;35.90
32753;DHT22;19121;52.428;10.816;2022-12-13T14:32:54;18.60;36.00
32753;DHT22;19121;52.428;10.816;2022-12-13T14:35:24;18.60;35.90
32753;DHT22;19121;52.428;10.816;2022-12-13T14:40:30;18.60;35.70
32753;DHT22;19121;52.428;10.816;2022-12-13T14:42:56;18.60;35.80
32753;DHT22;19121;52.428;10.816;2022-12-13T14:45:22;18.60;35.70
32753;DHT22;19121;52.428;10.816;2022-12-13T14:47:50;18.60;35.60
32753;DHT22;19121;52.428;10.816;2022-12-13T14:50:16;18.60;35.70
32753;DHT22;19121;52.428;10.816;2022-12-13T14:52:42;18.60;36.00
32753;DHT22;19121;52.428;10.816;2022-12-13T14:55:25;18.60;35.60
32753;DHT22;19121;52.428;10.816;2022-12-13T14:57:52;18.60;35.60
32753;DHT22;19121;52.428;10.816;2022-12-13T15:02:51;18.60;35.50
32753;DHT22;19121;52.428;10.816;2022-12-13T15:05:28;18.60;35.50
32753;DHT22;19121;52.428;10.816;2022-12-13T15:07:54;18.60;35.50
32753;DHT22;19121;52.428;10.816;2022-12-13T15:10:21;18.60;35.40
32753;DHT22;19121;52.428;10.816;2022-12-13T15:12:47;18.60;35.50
32753;DHT22;19121;52.428;10.816;2022-12-13T15:15:29;18.60;35.40
32753;DHT22;19121;52.428;10.816;2022-12-13T15:20:40;18.60;35.40
32753;DHT22;19121;52.428;10.816;2022-12-13T15:23:11;18.60;35.40
32753;DHT22;19121;52.428;10.816;2022-12-13T15:25:39;18.60;35.40
32753;DHT22;19121;52.428;10.816;2022-12-13T15:28:05;18.60;35.40
32753;DHT22;19121;52.428;10.816;2022-12-13T15:30:32;18.60;35.40
32753;DHT22;19121;52.428;10.816;2022-12-13T15:33:06;18.60;35.30
32753;DHT22;19121;52.428;10.816;2022-12-13T15:35:34;18.60;35.40
32753;DHT22;19121;52.428;10.816;2022-12-13T15:38:01;18.60;35.30
32753;DHT22;19121;52.428;10.816;2022-12-13T15:40:27;18.70;35.40
32753;DHT22;19121;52.428;10.816;2022-12-13T15:42:53;18.60;35.30
32753;DHT22;19121;52.428;10.816;2022-12-13T15:45:23;18.60;35.30
32753;DHT22;19121;52.428;10.816;2022-12-13T15:47:49;18.70;35.30
32753;DHT22;19121;52.428;10.816;2022-12-13T15:53:18;18.70;35.30
32753;DHT22;19121;52.428;10.816;2022-12-13T15:55:45;18.70;35.30
32753;DHT22;19121;52.428;10.816;2022-12-13T16:00:55;18.60;35.20
32753;DHT22;19121;52.428;10.816;2022-12-13T16:03:21;18.70;35.20
32753;DHT22;19121;52.428;10.816;2022-12-13T16:05:48;18.60;35.20
32753;DHT22;19121;52.428;10.816;2022-12-13T16:10:52;18.60;35.20
32753;DHT22;19121;52.428;10.816;2022-12-13T16:13:24;18.60;35.30
32753;DHT22;19121;52.428;10.816;2022-12-13T16:15:51;18.60;35.20
32753;DHT22;19121;52.428;10.816;2022-12-13T16:19:11;18.60;35.20
32753;DHT22;19121;52.428;10.816;2022-12-13T16:21:02;18.60;35.20
32753;DHT22;19121;52.428;10.816;2022-12-13T16:23:28;18.60;35.20
32753;DHT22;19121;52.428;10.816;2022-12-13T16:25:54;18.60;35.10
32753;DHT22;19121;52.428;10.816;2022-12-13T16:28:19;18.60;35.10
32753;DHT22;19121;52.428;10.816;2022-12-13T16:33:16;18.60;35.10
32753;DHT22;19121;52.428;10.816;2022-12-13T16:35:41;18.60;35.00
32753;DHT22;19121;52.428;10.816;2022-12-13T16:38:10;18.60;35.00
32753;DHT22;19121;52.428;10.816;2022-12-13T16:40:36;18.60;35.00
32753;DHT22;19121;52.428;10.816;2022-12-13T16:43:02;18.60;35.00
32753;DHT22;19121;52.428;10.816;2022-12-13T16:45:38;18.60;35.60
32753;DHT22;19121;52.428;10.816;2022-12-13T16:48:04;18.60;35.00
32753;DHT22;19121;52.428;10.816;2022-12-13T16:50:31;18.60;34.90